Time;durP1;ratioP1;P1;durP2;ratioP2;P2;SDS_P1;SDS_P2;PMS_P1;PMS_P2;Temp;Humidity;BMP_temperature;BMP_pressure;BME280_temperature;BME280_humidity;BME280_pressure;Samples;Min_cycle;Max_cycle;Signal;HPM_P1;HPM_P2
2023/12/16 00:01:32;;;;;;;18.00;6.07;;;9.30;97.50;;;10.99;70.61;103494.53;3082560;46;20457;-69
2023/12/16 00:04:01;;;;;;;22.50;7.33;;;9.30;97.40;;;11.00;70.63;103493.59;3082653;46;20428;-68
2023/12/16 00:06:30;;;;;;;21.00;6.60;;;9.30;97.30;;;11.02;70.43;103495.16;3081949;46;21008;-68
2023/12/16 00:08:58;;;;;;;19.03;6.17;;;9.30;97.30;;;11.05;70.42;103505.50;3082243;46;20444;-69
2023/12/16 00:11:27;;;;;;;19.20;7.37;;;9.40;97.30;;;11.08;70.33;103504.44;3082294;46;20423;-69
2023/12/16 00:13:56;;;;;;;15.23;6.00;;;9.40;97.20;;;11.12;69.97;103506.75;3082378;46;20435;-69
2023/12/16 00:16:27;;;;;;;19.73;7.10;;;9.40;97.10;;;11.16;69.98;103509.97;3082331;46;20427;-69
2023/12/16 00:18:56;;;;;;;17.57;5.87;;;9.40;97.10;;;11.18;69.90;103494.91;3082471;46;20526;-68
2023/12/16 00:21:24;;;;;;;19.80;6.47;;;9.40;96.90;;;11.20;69.63;103493.84;3082062;46;20486;-69
2023/12/16 00:23:53;;;;;;;18.10;6.97;;;9.40;96.80;;;11.23;69.54;103503.31;3082225;46;20508;-69
2023/12/16 00:26:21;;;;;;;17.90;6.27;;;9.50;96.80;;;11.24;69.43;103516.41;3081992;46;21021;-68
2023/12/16 00:28:49;;;;;;;20.17;6.50;;;9.50;96.80;;;11.26;69.13;103518.94;3082304;46;20481;-69
2023/12/16 00:31:18;;;;;;;14.63;6.93;;;9.50;96.60;;;11.28;69.15;103524.91;3082242;46;20524;-69
2023/12/16 00:33:46;;;;;;;16.13;5.23;;;9.50;96.50;;;11.30;68.87;103521.22;3082400;46;20983;-69
2023/12/16 00:36:15;;;;;;;12.60;5.13;;;9.60;96.50;;;11.31;68.66;103528.19;3081865;46;20431;-67
2023/12/16 00:38:43;;;;;;;16.63;5.50;;;9.60;96.30;;;11.34;68.74;103532.38;3081314;46;20460;-69
2023/12/16 00:41:12;;;;;;;24.57;5.83;;;9.60;96.20;;;11.35;68.57;103527.00;3080807;46;21028;-69
2023/12/16 00:43:40;;;;;;;11.90;4.80;;;9.60;96.20;;;11.37;68.38;103524.25;3082621;46;20450;-66
2023/12/16 00:46:09;;;;;;;13.90;6.00;;;9.60;96.10;;;11.38;68.24;103526.81;3082148;46;20427;-69
2023/12/16 00:48:37;;;;;;;15.50;5.33;;;9.60;96.00;;;11.39;67.89;103515.28;3081032;46;20442;-69
2023/12/16 00:51:06;;;;;;;14.60;5.50;;;9.70;95.90;;;11.41;67.87;103507.28;3082013;46;20460;-68
2023/12/16 00:53:34;;;;;;;16.20;4.63;;;9.70;95.90;;;11.41;67.66;103507.28;3081467;46;20451;-69
2023/12/16 00:56:03;;;;;;;13.03;4.73;;;9.70;95.90;;;11.45;67.71;103498.19;3081582;46;20480;-69
2023/12/16 00:58:31;;;;;;;17.30;5.80;;;9.70;95.80;;;11.44;67.70;103501.75;3081370;46;20452;-69
2023/12/16 01:00:59;;;;;;;21.17;6.27;;;9.70;95.60;;;11.44;67.50;103496.47;3082953;46;20506;-68
2023/12/16 01:03:28;;;;;;;11.63;4.13;;;9.70;95.60;;;11.45;67.20;103491.13;3083862;46;20593;-68
2023/12/16 01:05:56;;;;;;;12.17;5.00;;;9.70;95.60;;;11.48;67.10;103490.06;3081791;46;21013;-69
2023/12/16 01:08:25;;;;;;;13.00;4.90;;;9.70;95.50;;;11.49;67.22;103495.22;3081131;46;20482;-69
2023/12/16 01:10:53;;;;;;;12.77;5.10;;;9.80;95.50;;;11.51;66.92;103492.44;3081499;46;20436;-69
2023/12/16 01:13:21;;;;;;;13.37;5.03;;;9.80;95.30;;;11.52;66.74;103488.88;3081136;46;20486;-69
2023/12/16 01:15:50;;;;;;;15.10;5.17;;;9.80;95.30;;;11.53;66.58;103487.91;3081947;46;20565;-69
2023/12/16 01:18:18;;;;;;;16.07;5.10;;;9.80;95.30;;;11.53;66.57;103490.53;3081404;46;20439;-69
2023/12/16 01:20:47;;;;;;;14.10;5.17;;;9.80;95.10;;;11.52;65.97;103500.25;3082066;46;20554;-69
2023/12/16 01:23:15;;;;;;;13.93;6.17;;;9.80;95.00;;;11.53;66.29;103491.38;3081180;46;20477;-69
2023/12/16 01:25:43;;;;;;;15.00;4.17;;;9.80;94.80;;;11.52;66.01;103496.78;3081540;46;21004;-68
2023/12/16 01:28:12;;;;;;;15.13;4.93;;;9.80;94.90;;;11.53;65.92;103490.53;3080878;46;20439;-69
2023/12/16 01:30:40;;;;;;;16.03;6.13;;;9.80;94.80;;;11.54;66.17;103492.22;3081609;46;21000;-69
2023/12/16 01:33:09;;;;;;;11.23;4.53;;;9.80;94.70;;;11.54;65.86;103503.63;3081446;46;20439;-68
2023/12/16 01:35:37;;;;;;;12.17;4.40;;;9.80;94.70;;;11.55;65.62;103493.94;3081503;46;21093;-70
2023/12/16 01:38:06;;;;;;;11.77;5.70;;;9.80;94.70;;;11.55;65.39;103504.47;3080178;46;20667;-69
2023/12/16 01:40:34;;;;;;;9.40;3.90;;;9.80;94.60;;;11.55;65.63;103507.94;3081649;46;20440;-69
2023/12/16 01:43:08;;;;;;;14.53;5.73;;;9.80;94.60;;;11.56;65.15;103511.41;3080309;46;21072;-69
2023/12/16 01:45:36;;;;;;;15.30;5.10;;;9.80;94.30;;;11.56;65.27;103516.69;3081025;46;21061;-69
2023/12/16 01:48:06;;;;;;;10.80;4.40;;;9.80;94.40;;;11.57;65.16;103515.75;3080137;46;20447;-68
2023/12/16 01:50:35;;;;;;;10.73;4.50;;;9.80;94.30;;;11.59;65.20;103516.47;3080350;46;20530;-69
2023/12/16 01:53:05;;;;;;;12.90;4.47;;;9.90;94.40;;;11.61;64.47;103514.56;3080234;46;20550;-69
2023/12/16 01:55:34;;;;;;;13.80;4.80;;;9.80;94.10;;;11.61;64.85;103519.84;3081469;46;20431;-69
2023/12/16 01:58:04;;;;;;;10.47;4.00;;;9.90;94.20;;;11.62;64.69;103513.63;3080672;46;20435;-68
2023/12/16 02:00:33;;;;;;;11.47;3.93;;;9.90;94.10;;;11.64;64.60;103519.63;3081036;46;20541;-68
2023/12/16 02:03:02;;;;;;;13.27;3.70;;;9.90;94.00;;;11.62;64.33;103524.16;3080318;46;20577;-69
2023/12/16 02:05:30;;;;;;;8.17;3.93;;;9.90;93.80;;;11.64;64.15;103519.63;3080818;46;20436;-68
2023/12/16 02:07:58;;;;;;;8.90;3.43;;;9.90;93.80;;;11.65;64.35;103520.47;3080850;46;20439;-69
2023/12/16 02:10:27;;;;;;;9.73;3.37;;;9.90;93.60;;;11.65;63.98;103518.66;3080468;46;20432;-69
2023/12/16 02:12:55;;;;;;;9.93;4.27;;;9.90;93.70;;;11.65;63.80;103513.38;3080646;46;20470;-68
2023/12/16 02:15:24;;;;;;;10.37;3.60;;;9.90;93.50;;;11.66;63.69;103517.72;3080878;46;20460;-69
2023/12/16 02:17:52;;;;;;;10.03;3.63;;;9.90;93.30;;;11.68;63.58;103517.63;3080206;46;20525;-68
2023/12/16 02:20:21;;;;;;;12.90;4.13;;;10.00;92.70;;;11.68;63.40;103518.47;3080933;46;20512;-69
2023/12/16 02:22:51;;;;;;;9.70;4.27;;;10.00;92.70;;;11.68;63.43;103513.19;3080779;46;20428;-68
2023/12/16 02:25:19;;;;;;;10.33;4.23;;;10.00;92.60;;;11.70;63.07;103518.34;3079961;46;20435;-69
2023/12/16 02:27:48;;;;;;;9.43;3.40;;;10.00;92.60;;;11.70;63.00;103513.91;3080505;46;20444;-68
2023/12/16 02:30:20;;;;;;;10.13;3.83;;;10.00;92.50;;;11.70;62.80;103524.47;3081104;46;20528;-69
2023/12/16 02:32:48;;;;;;;13.30;4.37;;;10.00;92.30;;;11.72;62.57;103522.53;3080857;46;21095;-66
2023/12/16 02:35:17;;;;;;;7.37;3.37;;;10.00;92.30;;;11.70;62.44;103511.28;3080712;46;20424;-69
2023/12/16 02:37:45;;;;;;;13.80;4.47;;;10.00;92.20;;;11.71;62.41;103507.69;3080406;46;20489;-69
2023/12/16 02:40:14;;;;;;;9.93;4.53;;;10.00;92.10;;;11.71;62.19;103517.41;3081080;46;20467;-69
2023/12/16 02:42:42;;;;;;;8.40;3.63;;;10.00;91.90;;;11.70;62.07;103519.19;3079471;46;20427;-69
2023/12/16 02:45:11;;;;;;;6.30;3.30;;;10.00;92.00;;;11.70;61.90;103513.91;3080638;46;20576;-69
2023/12/16 02:47:39;;;;;;;9.57;3.63;;;10.00;91.90;;;11.70;62.00;103511.28;3080159;46;20522;-69
2023/12/16 02:50:08;;;;;;;9.30;3.00;;;10.00;91.90;;;11.71;61.75;103505.06;3079892;46;21008;-69
2023/12/16 02:52:37;;;;;;;7.97;3.70;;;10.00;91.70;;;11.70;61.29;103502.50;3080577;46;21173;-69
2023/12/16 02:55:06;;;;;;;8.13;4.20;;;10.00;91.70;;;11.71;61.42;103505.06;3080506;46;20515;-68
2023/12/16 02:57:34;;;;;;;10.30;3.83;;;10.00;91.60;;;11.71;61.31;103505.06;3080336;46;20484;-68
2023/12/16 03:00:04;;;;;;;9.83;3.73;;;10.00;91.50;;;11.71;61.40;103505.06;3082735;46;21100;-69
2023/12/16 03:02:32;;;;;;;7.67;3.63;;;10.00;91.40;;;11.72;60.87;103505.91;3082987;46;20458;-69
2023/12/16 03:05:01;;;;;;;11.47;3.47;;;10.00;91.30;;;11.67;60.70;103503.53;3083013;46;20427;-69
2023/12/16 03:07:30;;;;;;;7.07;2.90;;;10.00;91.60;;;11.67;60.84;103500.91;3082444;46;21016;-69
2023/12/16 03:09:59;;;;;;;10.13;3.57;;;10.00;91.20;;;11.66;60.89;103490.47;3083022;46;20734;-69
2023/12/16 03:12:27;;;;;;;5.33;2.80;;;10.00;91.00;;;11.64;60.59;103495.88;3082962;46;20481;-69
2023/12/16 03:14:56;;;;;;;7.73;3.27;;;10.00;91.10;;;11.63;60.53;103481.00;3082792;46;20533;-69
2023/12/16 03:17:24;;;;;;;8.93;2.70;;;10.00;91.00;;;11.61;60.33;103471.50;3082142;46;20494;-69
2023/12/16 03:19:52;;;;;;;9.10;3.00;;;10.00;91.00;;;11.60;60.37;103475.94;3082813;46;20494;-68
2023/12/16 03:22:21;;;;;;;7.60;3.13;;;10.00;91.00;;;11.62;60.52;103479.31;3082929;46;21044;-69
2023/12/16 03:24:49;;;;;;;13.63;3.97;;;10.00;91.00;;;11.63;60.56;103475.72;3082725;46;20561;-69
2023/12/16 03:27:18;;;;;;;8.50;3.50;;;10.00;90.90;;;11.63;60.40;103486.28;3082747;46;20438;-69
2023/12/16 03:29:47;;;;;;;7.00;3.00;;;10.00;91.00;;;11.65;60.48;103484.34;3082774;46;20427;-69
2023/12/16 03:32:15;;;;;;;12.40;3.93;;;10.00;91.00;;;11.64;60.36;103487.97;3082276;46;20423;-69
2023/12/16 03:34:44;;;;;;;12.93;3.40;;;10.00;90.90;;;11.64;59.93;103482.69;3082160;46;20428;-69
2023/12/16 03:37:14;;;;;;;11.27;3.87;;;9.90;91.30;;;11.61;60.17;103471.50;3082129;46;20439;-69
2023/12/16 03:39:42;;;;;;;8.70;3.20;;;10.00;90.80;;;11.54;60.17;103471.97;3082547;46;20553;-66
2023/12/16 03:42:10;;;;;;;7.47;3.17;;;9.90;91.30;;;11.52;60.14;103463.34;3081747;46;20518;-68
2023/12/16 03:44:39;;;;;;;5.90;2.87;;;9.90;91.30;;;11.49;60.25;103468.84;3082522;46;20641;-69
2023/12/16 03:47:07;;;;;;;9.37;3.50;;;9.90;91.20;;;11.45;60.18;103458.63;3081895;46;20469;-67
2023/12/16 03:49:35;;;;;;;12.00;3.47;;;9.90;91.20;;;11.38;60.29;103468.78;3082231;46;20435;-68
2023/12/16 03:52:04;;;;;;;15.20;3.70;;;9.90;91.20;;;11.35;60.41;103465.53;3082626;46;20520;-69
2023/12/16 03:54:33;;;;;;;10.63;3.33;;;9.80;91.10;;;11.29;60.18;103466.78;3082416;46;21003;-68
2023/12/16 03:57:01;;;;;;;10.00;3.47;;;9.80;91.10;;;11.25;60.36;103475.03;3082161;46;20474;-69
2023/12/16 03:59:29;;;;;;;13.43;3.80;;;9.70;91.10;;;11.21;60.34;103484.13;3081791;46;20550;-69
2023/12/16 04:01:58;;;;;;;14.10;3.43;;;9.70;91.20;;;11.16;60.42;103481.00;3082230;46;20467;-69
2023/12/16 04:04:26;;;;;;;11.13;4.00;;;9.60;91.20;;;11.12;60.42;103479.53;3082771;46;20968;-68
2023/12/16 04:06:58;;;;;;;7.67;2.97;;;9.60;91.20;;;11.08;60.44;103472.81;3081957;46;21103;-70
2023/12/16 04:09:30;;;;;;;8.17;3.57;;;9.60;91.10;;;11.02;60.25;103478.50;3081161;46;20433;-66
2023/12/16 04:11:59;;;;;;;15.00;3.97;;;9.50;91.10;;;10.98;60.47;103477.06;3082459;46;20553;-69
2023/12/16 04:14:27;;;;;;;7.53;2.97;;;9.50;91.20;;;10.95;60.61;103483.38;3082072;46;21045;-68
2023/12/16 04:16:55;;;;;;;13.80;3.40;;;9.40;91.20;;;10.93;60.78;103489.69;3081575;46;20995;-68
2023/12/16 04:19:24;;;;;;;7.83;3.47;;;9.40;91.20;;;10.89;60.64;103492.53;3082414;46;20549;-69
2023/12/16 04:21:52;;;;;;;6.50;2.90;;;9.40;91.20;;;10.86;60.66;103489.31;3082214;46;21013;-69
2023/12/16 04:24:21;;;;;;;7.93;3.33;;;9.40;91.30;;;10.83;60.76;103490.34;3082583;46;20511;-69
2023/12/16 04:26:49;;;;;;;8.63;3.07;;;9.30;91.20;;;10.80;60.67;103490.56;3081838;46;20489;-69
2023/12/16 04:29:18;;;;;;;9.63;3.67;;;9.30;91.30;;;10.78;60.65;103492.47;3082563;46;20505;-69
2023/12/16 04:31:46;;;;;;;13.77;4.67;;;9.20;91.20;;;10.76;60.64;103499.66;3081697;46;20428;-69
2023/12/16 04:34:15;;;;;;;13.33;3.83;;;9.30;91.30;;;10.73;60.84;103505.13;3082104;46;20431;-69
2023/12/16 04:36:44;;;;;;;14.57;4.00;;;9.20;91.30;;;10.72;60.70;103518.41;3081568;46;20460;-69
2023/12/16 04:39:12;;;;;;;7.10;3.30;;;9.20;91.30;;;10.69;60.89;103514.19;3081989;46;21150;-69
2023/12/16 04:41:41;;;;;;;8.00;3.87;;;9.20;91.30;;;10.68;60.84;103520.41;3081120;46;20591;-69
2023/12/16 04:44:09;;;;;;;6.57;3.67;;;9.20;91.30;;;10.66;60.87;103524.94;3082378;46;20439;-66
2023/12/16 04:46:37;;;;;;;13.63;3.70;;;9.10;91.30;;;10.65;60.85;103512.69;3081276;46;20447;-68
2023/12/16 04:49:06;;;;;;;8.40;3.80;;;9.10;91.30;;;10.64;60.96;103505.78;3081934;46;20535;-68
2023/12/16 04:51:34;;;;;;;8.10;3.23;;;9.10;91.30;;;10.62;60.80;103518.22;3081957;46;20548;-69
2023/12/16 04:54:03;;;;;;;8.43;3.53;;;9.10;91.40;;;10.61;60.83;103516.50;3081644;46;20450;-69
2023/12/16 04:56:32;;;;;;;13.07;4.67;;;9.10;91.40;;;10.60;60.95;103514.81;3081249;46;20583;-69
2023/12/16 04:59:00;;;;;;;11.80;4.10;;;9.10;91.40;;;10.60;60.96;103519.25;3082223;46;21111;-69
2023/12/16 05:01:28;;;;;;;8.87;4.10;;;9.00;91.40;;;10.58;60.84;103518.50;3081515;46;20429;-67
2023/12/16 05:03:57;;;;;;;9.23;4.10;;;9.00;91.40;;;10.57;60.88;103517.69;3081279;46;20581;-66
2023/12/16 05:06:25;;;;;;;12.23;3.50;;;9.00;91.40;;;10.55;60.92;103511.69;3081272;46;20491;-68
2023/12/16 05:08:54;;;;;;;8.33;3.47;;;9.00;91.40;;;10.54;60.77;103515.25;3081613;46;20432;-69
2023/12/16 05:11:23;;;;;;;8.73;3.70;;;9.00;91.40;;;10.54;60.61;103515.25;3082060;46;20976;-69
2023/12/16 05:13:51;;;;;;;11.33;3.80;;;9.00;91.40;;;10.52;60.96;103511.88;3081367;46;21015;-69
2023/12/16 05:16:23;;;;;;;14.00;4.00;;;9.00;91.40;;;10.50;60.69;103519.03;3081799;46;20427;-69
2023/12/16 05:18:51;;;;;;;7.20;2.70;;;8.90;91.40;;;10.47;60.97;103527.16;3081611;46;20434;-69
2023/12/16 05:21:21;;;;;;;8.83;3.27;;;9.00;91.40;;;10.47;60.90;103529.78;3081667;46;20432;-69
2023/12/16 05:23:50;;;;;;;14.33;4.13;;;9.00;91.50;;;10.48;60.96;103533.25;3081399;46;21082;-68
2023/12/16 05:26:20;;;;;;;8.60;3.80;;;9.00;91.50;;;10.48;61.16;103533.25;3081584;46;20436;-69
2023/12/16 05:28:48;;;;;;;14.13;2.90;;;9.00;91.50;;;10.43;60.69;103530.94;3081330;46;20458;-68
2023/12/16 05:31:17;;;;;;;9.80;3.20;;;9.00;91.40;;;10.42;60.86;103528.41;3081593;46;20584;-69
2023/12/16 05:33:45;;;;;;;10.90;3.60;;;8.90;91.40;;;10.40;60.91;103532.94;3081358;46;20458;-68
2023/12/16 05:36:14;;;;;;;11.57;3.40;;;8.90;91.40;;;10.40;61.15;103535.56;3081700;46;21176;-67
2023/12/16 05:38:43;;;;;;;10.97;3.00;;;8.90;91.40;;;10.40;61.22;103540.81;3080808;46;20557;-65
2023/12/16 05:41:14;;;;;;;10.03;3.07;;;8.90;91.50;;;10.38;60.96;103542.72;3080451;46;20558;-69
2023/12/16 05:43:43;;;;;;;7.97;3.30;;;8.90;91.50;;;10.35;61.07;103545.56;3081127;46;20428;-69
2023/12/16 05:46:12;;;;;;;8.03;2.90;;;8.90;91.40;;;10.32;61.18;103532.63;3081349;46;20520;-69
2023/12/16 05:48:40;;;;;;;10.50;3.27;;;8.90;91.40;;;10.31;61.19;103533.56;3080671;46;20507;-69
2023/12/16 05:51:09;;;;;;;8.27;3.30;;;8.90;91.50;;;10.31;61.55;103539.66;3081500;46;20427;-69
2023/12/16 05:53:37;;;;;;;7.60;2.73;;;8.80;91.50;;;10.27;61.25;103532.91;3081134;46;20460;-69
2023/12/16 05:56:06;;;;;;;10.63;3.63;;;8.80;91.40;;;10.26;61.38;103547.03;3080820;46;20548;-69
2023/12/16 05:58:35;;;;;;;10.33;3.27;;;8.80;91.50;;;10.29;61.63;103546.00;3080608;46;20558;-69
2023/12/16 06:01:06;;;;;;;12.00;3.20;;;8.90;91.60;;;10.31;61.38;103539.66;3081234;46;20504;-69
2023/12/16 06:03:35;;;;;;;11.33;2.77;;;8.80;91.60;;;10.36;61.73;103548.09;3081154;46;20541;-69
2023/12/16 06:06:04;;;;;;;16.67;4.03;;;8.90;91.70;;;10.39;61.21;103541.78;3081383;46;20468;-69
2023/12/16 06:08:34;;;;;;;10.10;3.23;;;8.90;91.70;;;10.40;61.07;103544.31;3080694;46;20494;-69
2023/12/16 06:11:02;;;;;;;11.40;3.53;;;8.90;91.60;;;10.36;61.05;103542.00;3081059;46;21027;-68
2023/12/16 06:13:31;;;;;;;18.17;3.60;;;8.90;91.50;;;10.38;61.36;103542.72;3081383;46;20427;-69
2023/12/16 06:15:59;;;;;;;13.70;4.07;;;8.90;91.60;;;10.39;61.32;103542.63;3081353;46;20542;-69
2023/12/16 06:18:45;;;;;;;8.90;2.97;;;8.90;91.50;;;10.41;61.29;103534.63;3080667;46;20529;-68
2023/12/16 06:21:13;;;;;;;20.80;3.97;;;8.90;91.60;;;10.41;61.06;103527.53;3081430;46;21019;-69
2023/12/16 06:23:42;;;;;;;10.23;3.40;;;8.90;91.60;;;10.38;61.37;103525.16;3080796;46;20495;-68
2023/12/16 06:26:10;;;;;;;15.20;3.80;;;8.90;91.50;;;10.44;61.00;103531.75;3081157;46;20435;-66
2023/12/16 06:28:38;;;;;;;11.23;3.80;;;8.90;91.60;;;10.46;61.29;103533.34;3080345;46;20460;-68
2023/12/16 06:31:16;;;;;;;11.03;3.20;;;8.90;91.60;;;10.51;61.33;103525.97;3080835;46;20469;-69
2023/12/16 06:33:45;;;;;;;8.90;3.00;;;8.90;91.70;;;10.57;61.42;103530.84;3082638;46;21063;-69
2023/12/16 06:36:14;;;;;;;10.93;3.77;;;8.90;91.70;;;10.58;60.95;103537.78;3083589;46;21011;-67
2023/12/16 06:38:42;;;;;;;8.60;3.23;;;9.00;91.70;;;10.60;61.02;103527.97;3082661;46;20468;-69
2023/12/16 06:41:11;;;;;;;12.67;3.20;;;9.00;91.70;;;10.61;60.94;103519.13;3082834;46;20964;-68
2023/12/16 06:43:39;;;;;;;8.70;3.13;;;9.00;91.70;;;10.62;61.04;103520.00;3083631;46;20441;-68
2023/12/16 06:46:07;;;;;;;12.43;3.93;;;9.00;91.70;;;10.56;61.03;103513.34;3083494;46;21055;-68
2023/12/16 06:48:36;;;;;;;15.30;4.23;;;9.00;91.70;;;10.55;61.29;103509.03;3082461;46;20463;-66
2023/12/16 06:51:04;;;;;;;8.13;3.47;;;9.00;91.70;;;10.55;61.27;103511.69;3082155;46;20435;-68
2023/12/16 06:53:35;;;;;;;13.63;3.90;;;9.00;91.70;;;10.57;61.27;103501.03;3083024;46;20455;-68
2023/12/16 06:56:05;;;;;;;14.87;3.97;;;9.00;91.80;;;10.59;61.26;103501.75;3083442;46;20455;-71
2023/12/16 06:58:34;;;;;;;17.20;4.33;;;9.00;91.70;;;10.60;61.21;103509.53;3081717;46;20442;-69
2023/12/16 07:01:03;;;;;;;10.03;4.43;;;9.00;91.80;;;10.62;61.24;103505.03;3083206;46;21029;-68
2023/12/16 07:03:31;;;;;;;10.73;3.83;;;9.00;91.80;;;10.63;61.42;103514.59;3082952;46;20459;-68
2023/12/16 07:06:01;;;;;;;9.43;3.80;;;9.00;91.90;;;10.64;61.33;103518.94;3082997;46;20428;-68
2023/12/16 07:08:29;;;;;;;13.07;4.40;;;9.00;91.90;;;10.67;61.38;103521.34;3082318;46;20509;-67
2023/12/16 07:10:58;;;;;;;11.30;3.97;;;9.00;91.90;;;10.69;61.22;103523.88;3082437;46;20427;-69
2023/12/16 07:13:26;;;;;;;7.53;3.33;;;9.00;92.00;;;10.72;61.35;103524.50;3083225;46;20562;-69
2023/12/16 07:15:55;;;;;;;12.80;4.23;;;9.00;92.00;;;10.71;61.12;103525.47;3082826;46;20563;-68
2023/12/16 07:18:23;;;;;;;12.57;3.73;;;9.10;92.00;;;10.76;61.23;103531.25;3082161;46;20442;-68
2023/12/16 07:20:52;;;;;;;9.97;3.60;;;9.10;92.00;;;10.77;61.38;103526.81;3082322;46;20455;-68
2023/12/16 07:23:20;;;;;;;12.63;4.20;;;9.10;92.00;;;10.82;61.34;103530.81;3082908;46;20446;-68
2023/12/16 07:25:48;;;;;;;10.97;4.27;;;9.20;92.00;;;10.86;61.31;103524.38;3082248;46;20446;-68
2023/12/16 07:28:18;;;;;;;8.63;3.50;;;9.20;92.10;;;10.88;61.07;103524.28;3082512;46;20463;-69
2023/12/16 07:30:46;;;;;;;9.47;3.80;;;9.20;92.00;;;10.90;61.12;103527.66;3082590;46;20459;-68
2023/12/16 07:33:15;;;;;;;10.97;3.63;;;9.20;92.00;;;10.91;61.16;103523.22;3082938;46;20435;-69
2023/12/16 07:35:44;;;;;;;13.00;4.27;;;9.20;92.00;;;10.93;61.28;103526.59;3082668;46;20571;-69
2023/12/16 07:38:12;;;;;;;13.27;4.70;;;9.30;92.00;;;10.98;61.25;103535.03;3082213;46;20442;-68
2023/12/16 07:40:40;;;;;;;10.13;4.00;;;9.30;92.10;;;11.02;61.29;103536.47;3082827;46;20427;-69
2023/12/16 07:43:09;;;;;;;13.97;4.03;;;9.30;92.00;;;11.04;61.08;103530.16;3081919;46;20484;-69
2023/12/16 07:45:37;;;;;;;12.50;4.37;;;9.30;92.00;;;11.07;61.22;103521.19;3081522;46;20585;-66
2023/12/16 07:48:06;;;;;;;15.07;4.40;;;9.30;92.10;;;11.11;61.13;103522.66;3081744;46;20439;-69
2023/12/16 07:50:34;;;;;;;12.40;4.20;;;9.40;92.10;;;11.13;61.09;103531.28;3082476;46;20476;-69
2023/12/16 07:53:03;;;;;;;13.57;4.60;;;9.40;92.10;;;11.14;61.03;103532.97;3082266;46;20427;-68
2023/12/16 07:55:31;;;;;;;11.93;4.30;;;9.40;92.10;;;11.16;61.18;103531.91;3082709;46;20427;-69
2023/12/16 07:57:59;;;;;;;12.97;4.27;;;9.40;92.10;;;11.15;61.14;103532.03;3081758;46;20468;-66
2023/12/16 08:00:28;;;;;;;11.10;5.30;;;9.40;92.10;;;11.17;61.31;103536.22;3082487;46;20457;-69
2023/12/16 08:02:56;;;;;;;15.73;5.07;;;9.50;92.20;;;11.21;61.59;103539.50;3082277;46;20549;-69
2023/12/16 08:05:25;;;;;;;10.23;4.37;;;9.50;92.20;;;11.25;61.20;103533.03;3082000;46;20427;-68
2023/12/16 08:07:53;;;;;;;20.30;4.83;;;9.60;92.20;;;11.30;61.26;103533.56;3082025;46;20483;-67
2023/12/16 08:10:22;;;;;;;11.20;4.20;;;9.50;92.20;;;11.32;61.03;103540.41;3082486;46;20435;-69
2023/12/16 08:12:50;;;;;;;10.67;4.23;;;9.50;92.10;;;11.36;61.14;103535.78;3082091;46;20495;-69
2023/12/16 08:15:18;;;;;;;14.43;4.57;;;9.60;92.20;;;11.34;61.03;103524.47;3082253;46;20431;-67
2023/12/16 08:17:47;;;;;;;14.40;4.83;;;9.60;92.10;;;11.35;60.78;103523.53;3081677;46;20441;-69
2023/12/16 08:20:15;;;;;;;12.07;4.93;;;9.70;92.00;;;11.38;60.92;103518.03;3082179;46;20430;-69
2023/12/16 08:22:44;;;;;;;15.63;4.90;;;9.70;92.00;;;11.39;60.97;103514.44;3082729;46;20428;-67
2023/12/16 08:25:12;;;;;;;19.00;4.40;;;9.70;92.00;;;11.43;61.15;103518.56;3082132;46;20452;-69
2023/12/16 08:27:40;;;;;;;15.77;4.83;;;9.70;92.00;;;11.43;61.02;103534.38;3081621;46;21069;-69
2023/12/16 08:30:10;;;;;;;10.60;4.40;;;9.70;92.00;;;11.50;61.12;103538.25;3082088;46;20436;-69
2023/12/16 08:32:38;;;;;;;14.33;4.73;;;9.80;92.10;;;11.55;60.93;103530.84;3082650;46;20435;-68
2023/12/16 08:35:07;;;;;;;16.37;4.90;;;9.80;92.10;;;11.59;60.74;103524.38;3082240;46;20423;-67
2023/12/16 08:37:36;;;;;;;12.37;4.80;;;9.80;92.10;;;11.62;60.94;103526.81;3081649;46;20908;-69
2023/12/16 08:40:07;;;;;;;15.30;4.53;;;9.90;92.10;;;11.63;60.80;103539.03;3081921;46;21081;-67
2023/12/16 08:42:35;;;;;;;16.03;4.57;;;9.90;92.10;;;11.63;60.81;103539.03;3081285;46;20439;-69
2023/12/16 08:45:04;;;;;;;14.90;5.13;;;9.90;92.20;;;11.64;61.03;103535.44;3081502;46;20439;-69
2023/12/16 08:47:33;;;;;;;14.77;5.20;;;9.90;92.20;;;11.65;61.09;103547.66;3081272;46;21029;-69
2023/12/16 08:50:02;;;;;;;18.90;6.80;;;9.90;92.20;;;11.66;61.06;103549.38;3081433;46;20569;-67
2023/12/16 08:52:32;;;;;;;11.37;5.57;;;9.90;92.30;;;11.64;61.10;103546.00;3081296;43;20559;-69
2023/12/16 08:55:02;;;;;;;15.43;5.70;;;9.90;92.30;;;11.63;61.60;103539.03;3081870;46;20439;-67
2023/12/16 08:57:32;;;;;;;15.33;5.77;;;9.90;92.40;;;11.62;61.55;103558.47;3080184;46;20501;-68
2023/12/16 09:00:01;;;;;;;16.90;6.10;;;9.90;92.40;;;11.64;61.64;103555.72;3081633;46;20456;-69
2023/12/16 09:02:32;;;;;;;17.87;6.20;;;9.90;92.50;;;11.64;61.76;103556.56;3081750;46;20431;-69
2023/12/16 09:05:00;;;;;;;13.77;5.27;;;9.90;92.60;;;11.66;61.79;103552.00;3081397;46;20999;-68
2023/12/16 09:07:28;;;;;;;14.13;6.27;;;9.90;92.60;;;11.69;61.59;103554.47;3080693;46;20439;-66
2023/12/16 09:09:57;;;;;;;15.60;6.03;;;9.90;92.70;;;11.69;61.83;103558.88;3081590;46;20537;-69
2023/12/16 09:12:25;;;;;;;18.33;6.07;;;9.90;92.80;;;11.66;61.86;103554.63;3081993;46;21071;-69
2023/12/16 09:14:54;;;;;;;15.93;5.77;;;10.00;92.30;;;11.65;62.23;103563.50;3081636;46;20542;-69
2023/12/16 09:17:22;;;;;;;15.17;5.47;;;9.90;92.90;;;11.65;62.40;103574.06;3080963;46;20494;-68
2023/12/16 09:19:50;;;;;;;22.87;6.47;;;10.00;92.60;;;11.65;62.39;103567.94;3080851;46;20478;-69
2023/12/16 09:22:19;;;;;;;16.37;6.50;;;9.90;93.30;;;11.62;62.80;103561.09;3081875;46;20519;-69
2023/12/16 09:24:48;;;;;;;22.13;6.53;;;9.90;93.50;;;11.60;63.13;103562.97;3081124;43;20455;-67
2023/12/16 09:27:16;;;;;;;18.33;6.97;;;9.90;93.60;;;11.59;63.15;103574.50;3081056;46;20439;-69
2023/12/16 09:29:45;;;;;;;21.27;7.40;;;9.90;93.70;;;11.56;63.58;103570.28;3081376;46;20537;-68
2023/12/16 09:32:14;;;;;;;15.27;7.13;;;9.90;93.90;;;11.55;63.70;103578.34;3081169;46;20431;-66
2023/12/16 09:34:42;;;;;;;19.07;7.00;;;9.90;94.00;;;11.54;64.09;103576.63;3081145;46;20487;-65
2023/12/16 09:37:11;;;;;;;17.73;6.60;;;9.80;94.00;;;11.59;64.04;103579.78;3080748;46;20439;-67
2023/12/16 09:39:39;;;;;;;15.43;7.87;;;9.90;94.20;;;11.66;64.18;103580.16;3081417;43;20434;-67
2023/12/16 09:42:11;;;;;;;20.13;7.63;;;9.90;94.40;;;11.67;64.25;103582.69;3080636;46;20561;-66
2023/12/16 09:44:41;;;;;;;21.20;7.63;;;9.90;94.30;;;11.69;64.14;103580.00;3081081;46;20459;-67
2023/12/16 09:47:12;;;;;;;19.80;9.27;;;9.90;94.40;;;11.72;64.25;103574.50;3080333;46;20460;-65
2023/12/16 09:49:44;;;;;;;17.63;6.77;;;9.90;94.40;;;11.75;64.26;103575.09;3081186;46;21135;-66
2023/12/16 09:52:12;;;;;;;15.17;6.77;;;10.00;93.90;;;11.78;64.08;103564.34;3080087;46;21088;-66
2023/12/16 09:54:41;;;;;;;21.80;7.63;;;10.00;93.90;;;11.82;64.28;103565.78;3081379;46;20444;-64
2023/12/16 09:57:13;;;;;;;30.73;19.63;;;10.00;93.80;;;11.83;64.26;103556.94;3080748;46;21127;-63
2023/12/16 09:59:43;;;;;;;21.87;7.90;;;10.10;93.90;;;11.87;64.42;103552.25;3080495;46;20557;-64
2023/12/16 10:02:28;;;;;;;18.17;8.17;;;10.10;94.10;;;11.87;64.50;103544.31;3080866;46;20573;-65
2023/12/16 10:04:58;;;;;;;17.27;7.37;;;10.10;93.90;;;11.90;64.36;103547.59;3080653;46;21015;-65
2023/12/16 10:07:27;;;;;;;16.10;6.83;;;10.10;93.90;;;11.91;64.36;103538.72;3079332;43;21032;-63
2023/12/16 10:09:56;;;;;;;12.90;6.77;;;10.10;93.90;;;11.92;64.28;103537.75;3080164;46;20447;-65
2023/12/16 10:12:35;;;;;;;21.43;7.40;;;10.20;94.00;;;11.93;64.24;103536.78;3081109;46;20428;-61
2023/12/16 10:15:05;;;;;;;15.83;6.93;;;10.20;94.00;;;11.95;64.52;103529.63;3080403;46;20514;-62
2023/12/16 10:17:33;;;;;;;20.10;8.00;;;10.20;93.90;;;11.97;64.65;103524.22;3080437;46;20439;-63
2023/12/16 10:20:03;;;;;;;16.57;7.67;;;10.20;94.00;;;11.95;64.52;103524.34;3080001;46;20571;-64